createdAt,value
2022-12-04T00:00:23.703Z,42.33
2022-12-04T00:01:25.519Z,42.32
2022-12-04T00:02:27.416Z,42.33
2022-12-04T00:03:29.332Z,42.33
2022-12-04T00:04:31.266Z,42.38
2022-12-04T00:05:33.102Z,42.46
2022-12-04T00:06:34.903Z,42.46
2022-12-04T00:07:36.813Z,42.45
2022-12-04T00:08:38.563Z,42.39
2022-12-04T00:09:40.371Z,42.25
2022-12-04T00:10:42.197Z,42.16
2022-12-04T00:11:44.018Z,42.07
2022-12-04T00:12:45.853Z,41.95
2022-12-04T00:13:47.651Z,41.91
2022-12-04T00:15:23.914Z,41.85
2022-12-04T00:15:53.120Z,41.94
2022-12-04T00:16:55.125Z,41.93
2022-12-04T00:17:57.017Z,41.92
2022-12-04T00:18:58.888Z,41.95
2022-12-04T00:20:00.678Z,41.92
2022-12-04T00:21:02.484Z,41.85
2022-12-04T00:22:04.290Z,41.76
2022-12-04T00:23:06.143Z,41.66
2022-12-04T00:24:07.950Z,41.58
2022-12-04T00:25:09.775Z,41.57
2022-12-04T00:26:11.899Z,41.55
2022-12-04T00:27:13.697Z,41.52
2022-12-04T00:28:15.560Z,41.35
2022-12-04T00:29:17.394Z,41.29
2022-12-04T00:30:19.195Z,41.20
2022-12-04T00:31:21.058Z,41.22
2022-12-04T00:32:23.164Z,41.23
2022-12-04T00:33:25.013Z,41.13
2022-12-04T00:34:26.823Z,41.07
2022-12-04T00:35:28.649Z,41.07
2022-12-04T00:36:30.473Z,41.00
2022-12-04T00:37:32.293Z,40.99
2022-12-04T00:38:34.149Z,40.98
2022-12-04T00:39:35.952Z,41.04
2022-12-04T00:40:37.749Z,40.96
2022-12-04T00:41:39.549Z,40.78
2022-12-04T00:42:41.355Z,40.78
2022-12-04T00:43:43.187Z,40.68
2022-12-04T00:44:44.975Z,40.58
2022-12-04T00:45:46.873Z,40.47
2022-12-04T00:46:48.776Z,40.47
2022-12-04T00:47:50.603Z,40.45
2022-12-04T00:48:52.467Z,40.43
2022-12-04T00:49:54.556Z,40.32
2022-12-04T00:50:56.430Z,40.32
2022-12-04T00:51:58.232Z,40.28
2022-12-04T00:53:00.064Z,40.15
2022-12-04T00:54:01.923Z,40.15
2022-12-04T00:55:03.714Z,40.10
2022-12-04T00:56:05.632Z,40.09
2022-12-04T00:57:07.454Z,39.99
2022-12-04T00:58:09.278Z,40.05
2022-12-04T00:59:11.115Z,40.07
2022-12-04T01:00:13.026Z,40.13
2022-12-04T01:01:14.883Z,40.06
2022-12-04T01:02:16.639Z,40.06
2022-12-04T01:03:18.488Z,40.02
2022-12-04T01:04:20.298Z,39.93
2022-12-04T01:05:22.163Z,39.94
2022-12-04T01:06:23.956Z,39.89
2022-12-04T01:07:25.764Z,39.72
2022-12-04T01:08:27.569Z,39.79
2022-12-04T01:09:29.426Z,39.71
2022-12-04T01:10:31.336Z,39.78
2022-12-04T01:11:33.154Z,39.81
2022-12-04T01:12:34.937Z,39.89
2022-12-04T01:13:36.749Z,39.84
2022-12-04T01:14:38.586Z,39.86
2022-12-04T01:15:40.406Z,39.84
2022-12-04T01:16:42.231Z,39.77
2022-12-04T01:17:44.003Z,39.64
2022-12-04T01:18:45.783Z,39.63
2022-12-04T01:19:47.630Z,39.67
2022-12-04T01:20:49.692Z,39.61
2022-12-04T01:21:51.494Z,39.57
2022-12-04T01:22:53.395Z,39.51
2022-12-04T01:23:55.230Z,39.45
2022-12-04T01:24:57.093Z,39.40
2022-12-04T01:25:58.899Z,39.33
2022-12-04T01:27:01.105Z,39.24
2022-12-04T01:28:02.908Z,39.16
2022-12-04T01:29:04.703Z,39.13
2022-12-04T01:30:06.832Z,39.08
2022-12-04T01:31:08.629Z,38.95
2022-12-04T01:32:10.478Z,39.04
2022-12-04T01:33:12.238Z,39.05
2022-12-04T01:34:14.049Z,39.07
2022-12-04T01:35:15.895Z,38.99
2022-12-04T01:36:17.920Z,38.98
2022-12-04T01:37:19.735Z,38.90
2022-12-04T01:38:21.545Z,38.88
2022-12-04T01:39:23.357Z,38.90
2022-12-04T01:40:25.237Z,38.90
2022-12-04T01:41:27.035Z,38.90
2022-12-04T01:42:28.831Z,38.80
2022-12-04T01:43:30.605Z,38.64
2022-12-04T01:44:32.427Z,38.56
2022-12-04T01:45:34.315Z,38.59
2022-12-04T01:46:36.097Z,38.48
2022-12-04T01:47:37.903Z,38.46
2022-12-04T01:48:39.711Z,38.50
2022-12-04T01:49:41.527Z,38.43
2022-12-04T01:50:43.490Z,38.36
2022-12-04T01:51:45.389Z,38.34
2022-12-04T01:52:47.194Z,38.25
2022-12-04T01:53:48.978Z,38.24
2022-12-04T01:54:50.786Z,38.28
2022-12-04T01:55:52.635Z,38.22
2022-12-04T01:56:54.414Z,38.30
2022-12-04T01:57:56.243Z,38.28
2022-12-04T01:58:58.071Z,38.29
2022-12-04T01:59:59.991Z,38.29
2022-12-04T02:01:07.876Z,38.30
2022-12-04T02:02:05.608Z,38.33
2022-12-04T02:03:07.601Z,38.32
2022-12-04T02:04:09.459Z,38.31
2022-12-04T02:05:11.246Z,38.22
2022-12-04T02:06:13.117Z,38.15
2022-12-04T02:07:14.993Z,38.10
2022-12-04T02:08:16.832Z,38.14
2022-12-04T02:09:24.628Z,38.19
2022-12-04T02:10:22.216Z,38.16
2022-12-04T02:11:24.084Z,38.01
2022-12-04T02:12:25.918Z,38.07
2022-12-04T02:13:27.728Z,38.15
2022-12-04T02:14:29.637Z,38.20
2022-12-04T02:15:31.443Z,38.14
2022-12-04T02:16:33.311Z,38.22
2022-12-04T02:17:35.102Z,38.23
2022-12-04T02:18:36.898Z,38.15
2022-12-04T02:19:38.702Z,38.00
2022-12-04T02:20:40.621Z,37.96
2022-12-04T02:21:42.488Z,37.92
2022-12-04T02:22:44.363Z,37.84
2022-12-04T02:23:46.178Z,37.87
2022-12-04T02:24:50.237Z,37.86
2022-12-04T02:25:51.603Z,37.80
2022-12-04T02:26:53.775Z,37.70
2022-12-04T02:27:55.567Z,37.70
2022-12-04T02:28:57.350Z,37.64
2022-12-04T02:29:59.169Z,37.50
2022-12-04T02:31:01.016Z,37.43
2022-12-04T02:32:02.932Z,37.33
2022-12-04T02:33:04.747Z,37.33
2022-12-04T02:34:06.561Z,37.26
2022-12-04T02:35:08.375Z,37.25
2022-12-04T02:36:10.194Z,37.22
2022-12-04T02:37:12.053Z,37.13
2022-12-04T02:38:13.864Z,37.19
2022-12-04T02:39:15.674Z,37.20
2022-12-04T02:40:17.490Z,37.18
2022-12-04T02:41:19.302Z,37.16
2022-12-04T02:42:21.804Z,37.07
2022-12-04T02:43:23.610Z,37.05
2022-12-04T02:44:25.402Z,36.99
2022-12-04T02:45:27.220Z,37.02
2022-12-04T02:46:29.094Z,36.98
2022-12-04T02:47:30.973Z,37.07
2022-12-04T02:48:32.776Z,37.11
2022-12-04T02:49:34.573Z,37.11
2022-12-04T02:50:36.482Z,37.09
2022-12-04T02:51:38.277Z,37.04
2022-12-04T02:52:40.122Z,37.04
2022-12-04T02:53:41.984Z,37.06
2022-12-04T02:54:43.797Z,37.01
2022-12-04T02:55:45.612Z,37.00
2022-12-04T02:56:47.433Z,37.01
2022-12-04T02:57:49.279Z,37.02
2022-12-04T02:58:51.080Z,36.97
2022-12-04T02:59:53.309Z,36.96
2022-12-04T03:00:55.679Z,37.01
2022-12-04T03:01:57.566Z,37.00
2022-12-04T03:02:59.564Z,36.96
2022-12-04T03:04:01.477Z,36.92
2022-12-04T03:05:03.282Z,36.93
2022-12-04T03:06:05.193Z,36.88
2022-12-04T03:07:07.048Z,36.93
2022-12-04T03:08:08.959Z,36.97
2022-12-04T03:09:10.776Z,37.01
2022-12-04T03:10:13.288Z,37.05
2022-12-04T03:11:15.087Z,37.09
2022-12-04T03:12:16.898Z,37.03
2022-12-04T03:13:18.766Z,37.04
2022-12-04T03:14:20.584Z,37.09
2022-12-04T03:15:22.398Z,36.99
2022-12-04T03:16:24.319Z,37.02
2022-12-04T03:17:26.109Z,37.05
2022-12-04T03:18:27.952Z,37.10
2022-12-04T03:19:29.769Z,37.16
2022-12-04T03:20:31.684Z,37.25
2022-12-04T03:21:33.472Z,37.40
2022-12-04T03:22:35.283Z,37.50
2022-12-04T03:23:37.136Z,37.62
2022-12-04T03:24:38.945Z,37.67
2022-12-04T03:25:40.759Z,37.69
2022-12-04T03:26:42.974Z,37.64
2022-12-04T03:27:44.773Z,37.67
2022-12-04T03:28:46.617Z,37.68
2022-12-04T03:29:48.430Z,37.72
2022-12-04T03:30:50.360Z,37.69
2022-12-04T03:31:52.147Z,37.75
2022-12-04T03:32:53.958Z,37.83
2022-12-04T03:33:55.802Z,37.92
2022-12-04T03:34:57.619Z,37.93
2022-12-04T03:35:59.441Z,37.94
2022-12-04T03:37:01.235Z,37.95
2022-12-04T03:38:03.045Z,38.00
2022-12-04T03:39:04.906Z,37.89
2022-12-04T03:40:06.841Z,37.79
2022-12-04T03:41:08.645Z,37.67
2022-12-04T03:42:10.443Z,37.61
2022-12-04T03:43:12.262Z,37.61
2022-12-04T03:44:14.121Z,37.37
2022-12-04T03:45:15.918Z,37.37
2022-12-04T03:46:17.831Z,37.37
2022-12-04T03:47:19.642Z,37.25
2022-12-04T03:48:23.494Z,37.21
2022-12-04T03:49:25.114Z,37.22
2022-12-04T03:50:27.021Z,37.16
2022-12-04T03:51:28.815Z,37.17
2022-12-04T03:52:30.622Z,37.16
2022-12-04T03:53:32.430Z,37.13
2022-12-04T03:54:34.265Z,36.95
2022-12-04T03:55:36.139Z,36.87
2022-12-04T03:56:37.942Z,36.83
2022-12-04T03:57:39.755Z,36.75
2022-12-04T03:58:41.575Z,36.73
2022-12-04T03:59:43.429Z,36.73
2022-12-04T04:00:45.228Z,36.63
2022-12-04T04:01:47.059Z,36.46
2022-12-04T04:02:48.990Z,36.33
2022-12-04T04:03:50.755Z,36.33
2022-12-04T04:04:52.599Z,36.41
2022-12-04T04:05:54.406Z,36.34
2022-12-04T04:06:56.223Z,36.36
2022-12-04T04:07:58.064Z,36.23
2022-12-04T04:08:59.852Z,36.26
2022-12-04T04:10:01.805Z,36.30
2022-12-04T04:11:03.618Z,36.22
2022-12-04T04:12:05.426Z,36.23
2022-12-04T04:14:08.982Z,36.18
2022-12-04T04:15:10.834Z,36.31
2022-12-04T04:16:12.675Z,36.40
2022-12-04T04:17:14.449Z,36.44
2022-12-04T04:18:16.260Z,36.35
2022-12-04T04:19:18.075Z,36.39
2022-12-04T04:20:19.915Z,36.40
2022-12-04T04:21:21.722Z,36.38
2022-12-04T04:22:23.500Z,36.45
2022-12-04T04:23:25.324Z,36.48
2022-12-04T04:24:27.155Z,36.43
2022-12-04T04:25:28.993Z,36.35
2022-12-04T04:26:30.932Z,36.28
2022-12-04T04:27:32.748Z,36.31
2022-12-04T04:28:34.583Z,36.33
2022-12-04T04:29:36.349Z,36.29
2022-12-04T04:30:38.209Z,36.28
2022-12-04T04:31:40.074Z,36.36
2022-12-04T04:32:41.924Z,36.40
2022-12-04T04:33:43.716Z,36.47
2022-12-04T04:34:45.508Z,36.50
2022-12-04T04:35:47.365Z,36.49
2022-12-04T04:36:49.169Z,36.40
2022-12-04T04:37:50.987Z,36.39
2022-12-04T04:38:52.775Z,36.38
2022-12-04T04:39:54.865Z,36.37
2022-12-04T04:40:56.931Z,36.31
2022-12-04T04:41:58.802Z,36.27
2022-12-04T04:43:01.737Z,36.25
2022-12-04T04:44:03.576Z,36.22
2022-12-04T04:45:05.352Z,36.19
2022-12-04T04:46:08.316Z,36.13
2022-12-04T04:47:10.067Z,36.12
2022-12-04T04:48:11.873Z,36.13
2022-12-04T04:49:13.694Z,36.13
2022-12-04T04:50:15.601Z,36.12
2022-12-04T04:51:17.822Z,36.20
2022-12-04T04:52:19.634Z,36.33
2022-12-04T04:53:21.441Z,36.38
2022-12-04T04:54:23.235Z,36.38
2022-12-04T04:55:25.081Z,36.41
2022-12-04T04:56:26.937Z,36.45
2022-12-04T04:57:28.750Z,36.51
2022-12-04T04:58:30.553Z,36.51
2022-12-04T04:59:32.362Z,36.48
2022-12-04T05:00:34.172Z,36.48
2022-12-04T05:01:36.079Z,36.48
2022-12-04T05:02:37.902Z,36.44
2022-12-04T05:03:39.747Z,36.42
2022-12-04T05:04:41.548Z,36.49
2022-12-04T05:05:43.355Z,36.61
2022-12-04T05:06:45.303Z,36.63
2022-12-04T05:07:47.165Z,36.59
2022-12-04T05:08:49.031Z,36.63
2022-12-04T05:09:50.842Z,36.64
2022-12-04T05:10:52.652Z,36.63
2022-12-04T05:11:54.493Z,36.63
2022-12-04T05:12:56.381Z,36.63
2022-12-04T05:13:58.211Z,36.53
2022-12-04T05:15:00.042Z,36.60
2022-12-04T05:16:01.893Z,36.66
2022-12-04T05:17:07.753Z,36.75
2022-12-04T05:18:07.450Z,36.76
2022-12-04T05:19:09.385Z,36.76
2022-12-04T05:20:11.297Z,36.75
2022-12-04T05:21:13.098Z,36.70
2022-12-04T05:22:14.945Z,36.67
2022-12-04T05:23:16.755Z,36.62
2022-12-04T05:24:18.549Z,36.59
2022-12-04T05:25:20.358Z,36.69
2022-12-04T05:26:22.163Z,36.66
2022-12-04T05:27:24.022Z,36.57
2022-12-04T05:28:25.851Z,36.48
2022-12-04T05:29:30.467Z,36.57
2022-12-04T05:30:31.276Z,36.69
2022-12-04T05:31:33.161Z,36.67
2022-12-04T05:32:35.177Z,36.71
2022-12-04T05:33:37.168Z,36.78
2022-12-04T05:34:38.940Z,36.81
2022-12-04T05:35:40.760Z,36.75
2022-12-04T05:36:42.598Z,36.84
2022-12-04T05:37:44.438Z,36.83
2022-12-04T05:38:46.264Z,36.80
2022-12-04T05:39:48.055Z,36.78
2022-12-04T05:40:49.868Z,36.79
2022-12-04T05:41:51.680Z,36.67
2022-12-04T05:42:53.526Z,36.73
2022-12-04T05:43:55.457Z,36.61
2022-12-04T05:44:57.266Z,36.55
2022-12-04T05:45:59.082Z,36.59
2022-12-04T05:47:01.245Z,36.59
2022-12-04T05:48:03.032Z,36.67
2022-12-04T05:49:04.840Z,36.83
2022-12-04T05:50:06.849Z,36.88
2022-12-04T05:51:08.651Z,36.81
2022-12-04T05:52:10.475Z,36.89
2022-12-04T05:53:12.323Z,36.89
2022-12-04T05:54:14.127Z,36.93
2022-12-04T05:55:15.940Z,36.95
2022-12-04T05:56:18.063Z,36.85
2022-12-04T05:57:19.877Z,36.83
2022-12-04T05:58:21.706Z,36.84
2022-12-04T05:59:23.537Z,36.94
2022-12-04T06:00:25.336Z,36.94
2022-12-04T06:01:27.160Z,36.85
2022-12-04T06:02:29.040Z,36.88
2022-12-04T06:03:30.979Z,36.85
2022-12-04T06:04:32.820Z,36.89
2022-12-04T06:05:34.622Z,37.00
2022-12-04T06:06:36.533Z,36.97
2022-12-04T06:07:38.396Z,37.00
2022-12-04T06:08:40.195Z,37.08
2022-12-04T06:09:42.011Z,37.10
2022-12-04T06:10:43.808Z,37.07
2022-12-04T06:11:45.610Z,36.99
2022-12-04T06:12:47.419Z,36.98
2022-12-04T06:13:49.269Z,36.99
2022-12-04T06:14:51.544Z,36.83
2022-12-04T06:15:53.345Z,36.75
2022-12-04T06:16:55.328Z,36.74
2022-12-04T06:17:57.169Z,36.67
2022-12-04T06:18:59.014Z,36.67
2022-12-04T06:20:01.002Z,36.59
2022-12-04T06:21:03.073Z,36.47
2022-12-04T06:22:04.854Z,36.46
2022-12-04T06:23:06.871Z,36.51
2022-12-04T06:24:08.719Z,36.50
2022-12-04T06:25:10.520Z,36.37
2022-12-04T06:26:12.711Z,36.17
2022-12-04T06:27:29.916Z,36.14
2022-12-04T06:28:18.150Z,36.14
2022-12-04T06:29:20.024Z,35.97
2022-12-04T06:30:22.005Z,35.86
2022-12-04T06:31:23.875Z,35.86
2022-12-04T06:32:25.669Z,35.93
2022-12-04T06:33:27.475Z,36.00
2022-12-04T06:34:29.330Z,36.09
2022-12-04T06:35:31.148Z,36.11
2022-12-04T06:36:33.063Z,36.07
2022-12-04T06:37:34.854Z,35.90
2022-12-04T06:38:36.661Z,35.90
2022-12-04T06:39:38.508Z,35.83
2022-12-04T06:40:40.423Z,35.88
2022-12-04T06:41:42.264Z,35.76
2022-12-04T06:42:44.090Z,35.81
2022-12-04T06:43:46.711Z,35.77
2022-12-04T06:44:48.663Z,35.78
2022-12-04T06:45:50.558Z,35.88
2022-12-04T06:46:54.645Z,35.77
2022-12-04T06:47:55.902Z,35.90
2022-12-04T06:48:57.709Z,35.97
2022-12-04T06:49:59.576Z,35.94
2022-12-04T06:51:01.354Z,35.94
2022-12-04T06:52:03.163Z,35.97
2022-12-04T06:53:08.435Z,36.00
2022-12-04T06:54:08.815Z,36.08
2022-12-04T06:55:10.670Z,36.10
2022-12-04T06:56:12.613Z,36.04
2022-12-04T06:57:14.409Z,36.00
2022-12-04T06:58:16.190Z,35.99
2022-12-04T07:00:40.522Z,36.05
2022-12-04T07:01:42.444Z,35.97
2022-12-04T07:02:44.319Z,35.83
2022-12-04T07:03:51.085Z,35.71
2022-12-04T07:04:49.778Z,35.71
2022-12-04T07:05:51.642Z,35.74
2022-12-04T07:06:53.461Z,35.72
2022-12-04T07:07:55.311Z,35.72
2022-12-04T07:08:57.081Z,35.72
2022-12-04T07:09:58.950Z,35.58
2022-12-04T07:11:00.751Z,35.61
2022-12-04T07:12:02.549Z,35.62
2022-12-04T07:13:04.360Z,35.68
2022-12-04T07:14:06.432Z,35.62
2022-12-04T07:15:08.392Z,35.58
2022-12-04T07:16:10.623Z,35.47
2022-12-04T07:17:12.626Z,35.44
2022-12-04T07:18:14.497Z,35.37
2022-12-04T07:19:16.416Z,35.36
2022-12-04T07:20:18.221Z,35.35
2022-12-04T07:21:20.068Z,35.38
2022-12-04T07:22:21.877Z,35.37
2022-12-04T07:23:23.670Z,35.20
2022-12-04T07:24:25.472Z,35.12
2022-12-04T07:25:27.265Z,35.14
2022-12-04T07:26:29.219Z,35.21
2022-12-04T07:27:31.044Z,35.15
2022-12-04T07:28:32.851Z,35.09
2022-12-04T07:29:34.664Z,35.06
2022-12-04T07:30:36.490Z,35.19
2022-12-04T07:31:38.467Z,35.32
2022-12-04T07:32:40.307Z,35.40
2022-12-04T07:33:42.109Z,35.48
2022-12-04T07:34:43.925Z,35.41
2022-12-04T07:35:45.751Z,35.29
2022-12-04T07:36:47.669Z,35.20
2022-12-04T07:37:49.477Z,35.18
2022-12-04T07:38:51.304Z,35.16
2022-12-04T07:39:53.480Z,35.16
2022-12-04T07:40:55.615Z,35.18
2022-12-04T07:41:57.519Z,35.14
2022-12-04T07:42:59.385Z,35.10
2022-12-04T07:44:01.198Z,35.00
2022-12-04T07:45:03.000Z,35.11
2022-12-04T07:46:04.886Z,35.19
2022-12-04T07:47:06.690Z,35.15
2022-12-04T07:48:08.536Z,35.16
2022-12-04T07:49:10.335Z,35.16
2022-12-04T07:50:12.235Z,35.13
2022-12-04T07:51:14.049Z,35.11
2022-12-04T07:52:15.903Z,35.11
2022-12-04T07:53:17.743Z,35.15
2022-12-04T07:54:19.569Z,35.18
2022-12-04T07:55:23.281Z,35.17
2022-12-04T07:56:25.010Z,35.18
2022-12-04T07:57:26.886Z,35.19
2022-12-04T07:58:28.695Z,35.11
2022-12-04T07:59:30.531Z,35.06
2022-12-04T08:00:32.424Z,35.00
2022-12-04T08:01:34.294Z,35.02
2022-12-04T08:02:36.174Z,35.04
2022-12-04T08:03:42.092Z,34.92
2022-12-04T08:04:41.881Z,34.90
2022-12-04T08:05:43.668Z,34.89
2022-12-04T08:06:45.480Z,34.93
2022-12-04T08:07:47.338Z,34.93
2022-12-04T08:08:49.109Z,34.95
2022-12-04T08:09:50.952Z,34.87
2022-12-04T08:10:52.753Z,34.88
2022-12-04T08:11:54.551Z,34.93
2022-12-04T08:12:56.383Z,34.89
2022-12-04T08:13:58.187Z,34.85
2022-12-04T08:15:00.002Z,34.88
2022-12-04T08:16:01.797Z,34.84
2022-12-04T08:17:03.653Z,34.85
2022-12-04T08:18:05.576Z,34.83
2022-12-04T08:19:07.473Z,34.76
2022-12-04T08:20:09.374Z,34.81
2022-12-04T08:21:11.177Z,34.85
2022-12-04T08:22:12.998Z,34.89
2022-12-04T08:23:14.845Z,34.87
2022-12-04T08:24:16.640Z,34.89
2022-12-04T08:25:18.449Z,34.90
2022-12-04T08:26:20.252Z,34.82
2022-12-04T08:27:22.086Z,34.67
2022-12-04T08:28:23.933Z,34.63
2022-12-04T08:29:25.751Z,34.59
2022-12-04T08:30:27.650Z,34.49
2022-12-04T08:31:29.567Z,34.55
2022-12-04T08:32:31.417Z,34.41
2022-12-04T08:33:33.279Z,34.34
2022-12-04T08:34:35.108Z,34.44
2022-12-04T08:35:36.903Z,34.43
2022-12-04T08:36:38.717Z,34.49
2022-12-04T08:37:40.517Z,34.45
2022-12-04T08:38:42.377Z,34.58
2022-12-04T08:39:44.183Z,34.59
2022-12-04T08:40:46.111Z,34.52
2022-12-04T08:41:51.081Z,34.44
2022-12-04T08:42:51.546Z,34.40
2022-12-04T08:43:53.401Z,34.42
2022-12-04T08:44:55.253Z,34.42
2022-12-04T08:45:57.081Z,34.42
2022-12-04T08:46:59.778Z,34.41
2022-12-04T08:48:02.125Z,34.33
2022-12-04T08:49:04.002Z,34.36
2022-12-04T08:50:06.047Z,34.35
2022-12-04T08:51:07.903Z,34.24
2022-12-04T08:52:09.784Z,34.22
2022-12-04T08:53:11.597Z,34.24
2022-12-04T08:54:13.462Z,34.23
2022-12-04T08:55:15.283Z,34.22
2022-12-04T08:56:17.101Z,34.26
2022-12-04T08:57:18.930Z,34.30
2022-12-04T08:58:20.746Z,34.38
2022-12-04T08:59:22.611Z,34.41
2022-12-04T09:00:24.454Z,34.33
2022-12-04T09:01:26.302Z,34.30
2022-12-04T09:02:28.157Z,34.28
2022-12-04T09:03:31.159Z,34.14
2022-12-04T09:04:33.147Z,33.98
2022-12-04T09:05:35.032Z,33.87
2022-12-04T09:06:36.936Z,33.85
2022-12-04T09:07:38.869Z,33.86
2022-12-04T09:08:40.669Z,33.85
2022-12-04T09:09:48.070Z,33.78
2022-12-04T09:10:46.242Z,33.88
2022-12-04T09:11:48.043Z,33.94
2022-12-04T09:12:49.852Z,33.78
2022-12-04T09:13:51.679Z,33.73
2022-12-04T09:14:53.531Z,33.65
2022-12-04T09:15:55.372Z,33.59
2022-12-04T09:16:57.440Z,33.69
2022-12-04T09:17:59.256Z,33.78
2022-12-04T09:19:01.096Z,33.73
2022-12-04T09:20:03.491Z,33.67
2022-12-04T09:21:05.535Z,33.61
2022-12-04T09:22:07.344Z,33.51
2022-12-04T09:23:09.162Z,33.55
2022-12-04T09:24:10.956Z,33.52
2022-12-04T09:25:12.796Z,33.49
2022-12-04T09:26:14.601Z,33.48
2022-12-04T09:27:16.419Z,33.38
2022-12-04T09:28:18.240Z,33.44
2022-12-04T09:29:20.031Z,33.39
2022-12-04T09:30:21.883Z,33.40
2022-12-04T09:31:23.786Z,33.39
2022-12-04T09:32:25.694Z,33.23
2022-12-04T09:33:27.617Z,33.15
2022-12-04T09:34:29.365Z,32.93
2022-12-04T09:35:31.215Z,33.20
2022-12-04T09:36:33.364Z,33.25
2022-12-04T09:37:35.162Z,33.25
2022-12-04T09:38:36.990Z,33.30
2022-12-04T09:39:41.295Z,33.32
2022-12-04T09:40:43.217Z,33.30
2022-12-04T09:41:45.026Z,33.21
2022-12-04T09:42:46.831Z,33.27
2022-12-04T09:43:48.632Z,33.20
2022-12-04T09:44:50.427Z,33.19
2022-12-04T09:45:52.291Z,33.24
2022-12-04T09:46:54.755Z,33.18
2022-12-04T09:47:56.614Z,33.08
2022-12-04T09:48:58.411Z,33.02
2022-12-04T09:50:00.235Z,32.89
2022-12-04T09:51:02.195Z,32.98
2022-12-04T09:52:04.131Z,33.01
2022-12-04T09:53:05.932Z,32.94
2022-12-04T09:54:07.733Z,32.93
2022-12-04T09:55:09.536Z,32.86
2022-12-04T09:56:11.495Z,32.90
2022-12-04T09:57:13.337Z,32.93
2022-12-04T09:58:15.107Z,32.91
2022-12-04T09:59:16.927Z,32.84
2022-12-04T10:00:18.825Z,32.85
2022-12-04T10:01:20.680Z,32.81
2022-12-04T10:02:22.639Z,32.79
2022-12-04T10:03:24.726Z,32.81
2022-12-04T10:04:26.898Z,32.82
2022-12-04T10:05:28.697Z,32.87
2022-12-04T10:06:30.649Z,32.70
2022-12-04T10:07:32.908Z,32.63
2022-12-04T10:08:34.721Z,32.60
2022-12-04T10:09:36.545Z,32.54
2022-12-04T10:10:38.592Z,32.57
2022-12-04T10:11:40.407Z,32.56
2022-12-04T10:12:42.225Z,32.54
2022-12-04T10:13:44.052Z,32.53
2022-12-04T10:14:45.853Z,32.55
2022-12-04T10:15:47.715Z,32.35
2022-12-04T10:16:49.734Z,32.42
2022-12-04T10:17:51.546Z,32.27
2022-12-04T10:18:53.360Z,32.10
2022-12-04T10:19:55.404Z,32.17
2022-12-04T10:20:57.421Z,32.19
2022-12-04T10:21:59.280Z,32.03
2022-12-04T10:23:01.224Z,32.14
2022-12-04T10:24:03.051Z,32.11
2022-12-04T10:25:04.880Z,32.20
2022-12-04T10:26:07.201Z,32.27
2022-12-04T10:27:09.060Z,32.20
2022-12-04T10:28:10.875Z,32.15
2022-12-04T10:29:12.677Z,32.13
2022-12-04T10:30:14.493Z,32.10
2022-12-04T10:31:16.368Z,32.08
2022-12-04T10:32:18.282Z,31.93
2022-12-04T10:33:21.192Z,31.88
2022-12-04T10:34:23.013Z,31.82
2022-12-04T10:35:24.848Z,31.73
2022-12-04T10:36:26.653Z,31.75
2022-12-04T10:37:28.537Z,31.63
2022-12-04T10:38:30.406Z,31.48
2022-12-04T10:39:32.227Z,31.40
2022-12-04T10:40:34.254Z,31.25
2022-12-04T10:41:36.056Z,31.44
2022-12-04T10:42:37.915Z,31.58
2022-12-04T10:43:39.719Z,31.62
2022-12-04T10:44:41.529Z,31.53
2022-12-04T10:45:43.367Z,31.42
2022-12-04T10:46:46.639Z,31.46
2022-12-04T10:47:48.786Z,31.46
2022-12-04T10:48:50.618Z,31.43
2022-12-04T10:49:52.453Z,31.35
2022-12-04T10:50:54.387Z,31.14
2022-12-04T10:51:56.249Z,31.22
2022-12-04T10:52:58.109Z,31.14
2022-12-04T10:53:59.942Z,31.12
2022-12-04T10:55:01.752Z,31.01
2022-12-04T10:56:03.693Z,31.12
2022-12-04T10:57:05.544Z,31.13
2022-12-04T10:58:07.385Z,31.12
2022-12-04T10:59:09.277Z,31.19
2022-12-04T11:00:11.291Z,31.14
2022-12-04T11:01:13.089Z,31.08
2022-12-04T11:02:15.049Z,31.13
2022-12-04T11:03:16.979Z,31.18
2022-12-04T11:04:18.855Z,31.19
2022-12-04T11:05:20.770Z,31.24
2022-12-04T11:06:22.570Z,31.15
2022-12-04T11:07:24.388Z,31.07
2022-12-04T11:08:26.464Z,31.04
2022-12-04T11:09:28.291Z,31.14
2022-12-04T11:10:30.188Z,31.08
2022-12-04T11:11:32.082Z,31.10
2022-12-04T11:12:33.940Z,31.02
2022-12-04T11:13:35.817Z,31.00
2022-12-04T11:14:37.662Z,30.93
2022-12-04T11:15:39.438Z,30.93
2022-12-04T11:16:41.330Z,30.84
2022-12-04T11:17:43.228Z,30.66
2022-12-04T11:18:45.097Z,30.69
2022-12-04T11:19:46.929Z,30.67
2022-12-04T11:20:48.776Z,30.63
2022-12-04T11:21:50.594Z,30.62
2022-12-04T11:22:52.495Z,30.62
2022-12-04T11:23:54.304Z,30.61
2022-12-04T11:24:56.112Z,30.59
2022-12-04T11:26:03.812Z,30.63
2022-12-04T11:27:01.641Z,30.59
2022-12-04T11:28:03.472Z,30.65
2022-12-04T11:29:05.323Z,30.60
2022-12-04T11:30:07.350Z,30.59
2022-12-04T11:31:09.242Z,30.61
2022-12-04T11:32:11.134Z,30.62
2022-12-04T11:33:12.925Z,30.64
2022-12-04T11:34:14.802Z,30.68
2022-12-04T11:35:16.681Z,30.67
2022-12-04T11:36:18.673Z,30.59
2022-12-04T11:37:20.595Z,30.49
2022-12-04T11:38:22.372Z,30.46
2022-12-04T11:39:24.243Z,30.43
2022-12-04T11:40:26.237Z,30.40
2022-12-04T11:41:28.060Z,30.32
2022-12-04T11:42:29.886Z,30.24
2022-12-04T11:43:31.726Z,30.11
2022-12-04T11:44:33.549Z,30.02
2022-12-04T11:45:35.344Z,30.06
2022-12-04T11:46:37.686Z,30.15
2022-12-04T11:47:39.512Z,30.03
2022-12-04T11:48:41.420Z,30.12
2022-12-04T11:49:43.988Z,30.16
2022-12-04T11:50:46.400Z,30.15
2022-12-04T11:51:48.229Z,30.15
2022-12-04T11:52:50.072Z,30.22
2022-12-04T11:53:51.912Z,30.18
2022-12-04T11:54:53.809Z,30.17
2022-12-04T11:55:55.655Z,29.98
2022-12-04T11:56:57.586Z,30.03
2022-12-04T11:57:59.523Z,30.07
2022-12-04T11:59:01.351Z,29.93
2022-12-04T12:00:03.189Z,30.00
2022-12-04T12:01:05.085Z,30.06
2022-12-04T12:02:07.054Z,30.10
2022-12-04T12:03:08.939Z,29.96
2022-12-04T12:04:10.798Z,29.91
2022-12-04T12:05:12.676Z,29.96
2022-12-04T12:06:14.462Z,29.85
2022-12-04T12:07:16.283Z,29.94
2022-12-04T12:08:18.109Z,29.93
2022-12-04T12:09:19.931Z,30.04
2022-12-04T12:10:21.834Z,30.05
2022-12-04T12:11:23.680Z,30.08
2022-12-04T12:12:25.458Z,30.13
2022-12-04T12:13:27.340Z,30.07
2022-12-04T12:14:29.246Z,30.02
2022-12-04T12:15:31.066Z,29.99
2022-12-04T12:16:32.913Z,29.94
2022-12-04T12:17:34.704Z,29.93
2022-12-04T12:18:36.552Z,29.92
2022-12-04T12:19:38.357Z,29.93
2022-12-04T12:20:40.230Z,29.95
2022-12-04T12:21:42.035Z,29.95
2022-12-04T12:22:43.847Z,29.97
2022-12-04T12:23:45.649Z,29.93
2022-12-04T12:24:53.291Z,29.97
2022-12-04T12:25:52.517Z,29.90
2022-12-04T12:26:54.462Z,29.95
2022-12-04T12:27:56.328Z,29.96
2022-12-04T12:28:58.139Z,29.90
2022-12-04T12:29:59.969Z,29.90
2022-12-04T12:31:05.761Z,29.92
2022-12-04T12:32:05.540Z,29.87
2022-12-04T12:33:07.535Z,29.89
2022-12-04T12:34:09.359Z,29.88
2022-12-04T12:35:11.175Z,29.82
2022-12-04T12:36:13.219Z,29.84
2022-12-04T12:37:15.045Z,29.89
2022-12-04T12:38:16.869Z,29.90
2022-12-04T12:39:18.690Z,29.92
2022-12-04T12:40:20.891Z,29.89
2022-12-04T12:41:22.767Z,29.93
2022-12-04T12:42:24.623Z,29.99
2022-12-04T12:43:26.452Z,30.00
2022-12-04T12:44:28.257Z,29.93
2022-12-04T12:45:30.201Z,30.02
2022-12-04T12:46:32.210Z,30.09
2022-12-04T12:47:33.955Z,30.11
2022-12-04T12:48:35.802Z,30.03
2022-12-04T12:49:38.054Z,29.98
2022-12-04T12:50:39.870Z,30.01
2022-12-04T12:51:41.730Z,30.01
2022-12-04T12:52:43.552Z,29.98
2022-12-04T12:53:45.388Z,29.92
2022-12-04T12:54:47.186Z,29.93
2022-12-04T12:55:48.995Z,29.89
2022-12-04T12:56:51.074Z,29.79
2022-12-04T12:57:53.087Z,29.83
2022-12-04T12:58:54.939Z,29.82
2022-12-04T12:59:57.101Z,29.82
2022-12-04T13:00:59.095Z,29.76
2022-12-04T13:02:01.463Z,29.83
2022-12-04T13:03:03.597Z,29.87
2022-12-04T13:04:05.408Z,29.81
2022-12-04T13:05:07.214Z,29.88
2022-12-04T13:06:09.140Z,29.88
2022-12-04T13:07:10.990Z,29.89
2022-12-04T13:08:12.847Z,29.83
2022-12-04T13:09:14.631Z,29.84
2022-12-04T13:10:16.427Z,29.84
2022-12-04T13:11:18.253Z,29.92
2022-12-04T13:12:20.109Z,29.93
2022-12-04T13:13:22.141Z,29.90
2022-12-04T13:14:23.986Z,29.88
2022-12-04T13:15:25.815Z,29.79
2022-12-04T13:16:27.649Z,29.70
2022-12-04T13:17:29.461Z,29.71
2022-12-04T13:18:31.298Z,29.78
2022-12-04T13:19:33.118Z,29.84